Time;durP1;ratioP1;P1;durP2;ratioP2;P2;SDS_P1;SDS_P2;PMS_P1;PMS_P2;Temp;Humidity;BMP_temperature;BMP_pressure;BME280_temperature;BME280_humidity;BME280_pressure;Samples;Min_cycle;Max_cycle;Signal;HPM_P1;HPM_P2
2021/01/21 00:01:51;;;;;;;5.75;1.63;;;;;;;;;;4868601;29;20480;-80
2021/01/21 00:04:17;;;;;;;3.97;1.45;;;;;;;;;;4864751;29;20132;-78
2021/01/21 00:06:44;;;;;;;4.28;1.85;;;;;;;;;;4862888;29;20049;-80
2021/01/21 00:09:10;;;;;;;3.47;1.63;;;;;;;;;;4865686;29;20057;-79
2021/01/21 00:11:36;;;;;;;4.35;1.77;;;;;;;;;;4868296;29;20435;-80
2021/01/21 00:14:02;;;;;;;7.13;1.88;;;;;;;;;;4866494;29;20063;-75
2021/01/21 00:16:29;;;;;;;4.72;1.70;;;;;;;;;;4868273;29;20140;-76
2021/01/21 00:18:55;;;;;;;4.90;2.05;;;;;;;;;;4869533;29;20105;-76
2021/01/21 00:21:21;;;;;;;3.53;1.55;;;;;;;;;;4866847;29;20763;-77
2021/01/21 00:23:47;;;;;;;4.22;1.70;;;;;;;;;;4865537;29;20061;-76
2021/01/21 00:26:13;;;;;;;7.53;1.73;;;;;;;;;;4864054;29;20052;-78
2021/01/21 00:28:40;;;;;;;5.43;1.73;;;;;;;;;;4866189;29;20164;-77
2021/01/21 00:31:06;;;;;;;4.88;1.33;;;;;;;;;;4864974;29;20444;-76
2021/01/21 00:33:32;;;;;;;4.63;1.85;;;;;;;;;;4860958;29;22066;-76
2021/01/21 00:35:59;;;;;;;5.72;1.60;;;;;;;;;;4863642;29;20201;-77
2021/01/21 00:38:25;;;;;;;4.72;1.75;;;;;;;;;;4865176;29;20059;-77
2021/01/21 00:40:51;;;;;;;4.35;1.90;;;;;;;;;;4868952;29;20049;-77
2021/01/21 00:43:17;;;;;;;3.65;1.48;;;;;;;;;;4868444;29;20055;-76
2021/01/21 00:45:43;;;;;;;6.38;1.95;;;;;;;;;;4864586;29;20053;-75
2021/01/21 00:48:09;;;;;;;4.53;1.63;;;;;;;;;;4865957;29;20450;-75
2021/01/21 00:50:36;;;;;;;6.50;2.00;;;;;;;;;;4863504;29;20056;-76
2021/01/21 00:53:09;;;;;;;6.15;1.67;;;;;;;;;;4866107;29;20049;-76
2021/01/21 00:55:35;;;;;;;5.80;1.95;;;;;;;;;;4867341;29;20045;-75
2021/01/21 00:58:01;;;;;;;5.03;1.45;;;;;;;;;;4863103;29;20045;-77
2021/01/21 01:00:27;;;;;;;6.40;1.77;;;;;;;;;;4868525;29;20055;-77
2021/01/21 01:02:54;;;;;;;7.13;1.95;;;;;;;;;;4865199;29;20073;-81
2021/01/21 01:05:20;;;;;;;5.57;2.10;;;;;;;;;;4864332;29;20053;-76
2021/01/21 01:07:46;;;;;;;3.65;1.85;;;;;;;;;;4866615;29;20048;-77
2021/01/21 01:10:12;;;;;;;4.63;1.50;;;;;;;;;;4863652;29;20076;-77
2021/01/21 01:12:38;;;;;;;2.88;1.30;;;;;;;;;;4862484;29;20055;-77
2021/01/21 01:15:06;;;;;;;3.63;1.80;;;;;;;;;;4864247;29;20051;-77
2021/01/21 01:17:32;;;;;;;3.33;1.40;;;;;;;;;;4867796;29;20072;-77
2021/01/21 01:20:02;;;;;;;4.20;1.45;;;;;;;;;;4867096;29;20054;-78
2021/01/21 01:22:28;;;;;;;3.28;1.65;;;;;;;;;;4863409;29;20502;-76
2021/01/21 01:24:54;;;;;;;2.75;1.17;;;;;;;;;;4863442;29;20060;-77
2021/01/21 01:27:21;;;;;;;2.22;1.10;;;;;;;;;;4865380;29;20408;-80
2021/01/21 01:29:47;;;;;;;4.47;1.13;;;;;;;;;;4867880;29;20045;-80
2021/01/21 01:32:13;;;;;;;4.65;1.45;;;;;;;;;;4862654;29;20053;-80
2021/01/21 01:34:39;;;;;;;4.63;1.60;;;;;;;;;;4863586;29;20045;-80
2021/01/21 01:37:06;;;;;;;4.60;1.33;;;;;;;;;;4866518;29;20093;-77
2021/01/21 01:39:32;;;;;;;2.47;1.27;;;;;;;;;;4862866;29;20041;-77
2021/01/21 01:41:59;;;;;;;3.83;1.45;;;;;;;;;;4864639;29;20139;-85
2021/01/21 01:44:25;;;;;;;4.25;1.40;;;;;;;;;;4868288;29;20129;-86
2021/01/21 01:46:51;;;;;;;5.68;1.52;;;;;;;;;;4868721;29;20052;-85
2021/01/21 01:49:18;;;;;;;5.18;1.52;;;;;;;;;;4862622;29;20052;-86
2021/01/21 01:51:45;;;;;;;3.45;1.40;;;;;;;;;;4866173;29;20057;-85
2021/01/21 01:54:12;;;;;;;9.25;2.10;;;;;;;;;;4865369;29;20389;-85
2021/01/21 01:56:38;;;;;;;4.05;1.55;;;;;;;;;;4864367;29;20488;-82
2021/01/21 01:59:04;;;;;;;3.55;1.08;;;;;;;;;;4865252;29;20067;-82
2021/01/21 02:01:31;;;;;;;4.10;1.35;;;;;;;;;;4865505;29;20052;-83
2021/01/21 02:03:57;;;;;;;3.95;1.25;;;;;;;;;;4862790;29;20045;-90
2021/01/21 02:06:23;;;;;;;2.92;1.13;;;;;;;;;;4868661;29;20059;-89
2021/01/21 02:08:49;;;;;;;5.28;1.67;;;;;;;;;;4863489;29;20049;-90
2021/01/21 02:11:31;;;;;;;4.80;1.27;;;;;;;;;;4869426;29;20053;-90
2021/01/21 02:14:02;;;;;;;3.13;1.20;;;;;;;;;;4864557;29;20060;-90
2021/01/21 02:16:41;;;;;;;3.00;1.13;;;;;;;;;;4864049;29;20057;-90
2021/01/21 02:19:07;;;;;;;2.22;1.30;;;;;;;;;;4865272;29;20045;-89
2021/01/21 02:21:36;;;;;;;3.63;1.80;;;;;;;;;;4868523;29;20059;-89
2021/01/21 02:24:05;;;;;;;3.20;1.00;;;;;;;;;;4864326;29;20133;-87
2021/01/21 02:26:58;;;;;;;3.17;1.30;;;;;;;;;;4864102;29;20056;-83
2021/01/21 02:29:29;;;;;;;4.45;1.35;;;;;;;;;;4862543;29;20050;-84
2021/01/21 02:32:01;;;;;;;3.35;1.40;;;;;;;;;;4863512;29;20045;-88
2021/01/21 02:34:31;;;;;;;3.97;1.20;;;;;;;;;;4861026;29;20469;-89
2021/01/21 02:37:00;;;;;;;3.33;1.20;;;;;;;;;;4862170;29;20052;-84
2021/01/21 02:39:29;;;;;;;2.50;1.20;;;;;;;;;;4861909;29;20045;-79
2021/01/21 02:41:55;;;;;;;2.08;1.08;;;;;;;;;;4868766;29;20506;-82
2021/01/21 02:44:21;;;;;;;3.08;0.98;;;;;;;;;;4869742;29;20064;-81
2021/01/21 02:46:48;;;;;;;4.22;1.40;;;;;;;;;;4865614;29;20141;-81
2021/01/21 02:49:15;;;;;;;1.77;0.82;;;;;;;;;;4862120;29;20049;-79
2021/01/21 02:51:45;;;;;;;3.55;1.85;;;;;;;;;;4864763;29;20076;-82
2021/01/21 02:54:19;;;;;;;2.95;1.52;;;;;;;;;;4866638;29;20059;-81
2021/01/21 02:56:46;;;;;;;5.45;1.20;;;;;;;;;;4872138;29;20487;-82
2021/01/21 02:59:14;;;;;;;6.22;1.30;;;;;;;;;;4860718;29;20059;-77
2021/01/21 03:01:41;;;;;;;3.47;1.15;;;;;;;;;;4866648;29;20048;-81
2021/01/21 03:04:08;;;;;;;4.18;1.08;;;;;;;;;;4862643;29;20116;-81
2021/01/21 03:06:35;;;;;;;1.73;0.98;;;;;;;;;;4864519;29;20120;-81
2021/01/21 03:09:01;;;;;;;4.13;1.25;;;;;;;;;;4864560;29;20067;-82
2021/01/21 03:11:27;;;;;;;3.00;1.00;;;;;;;;;;4870098;29;20055;-83
2021/01/21 03:13:53;;;;;;;6.57;1.27;;;;;;;;;;4866776;29;20053;-82
2021/01/21 03:16:20;;;;;;;2.75;1.10;;;;;;;;;;4873204;29;20059;-81
2021/01/21 03:18:51;;;;;;;4.47;1.75;;;;;;;;;;4870863;29;20053;-80
2021/01/21 03:21:18;;;;;;;5.03;1.30;;;;;;;;;;4866902;29;20049;-80
2021/01/21 03:23:47;;;;;;;4.03;1.13;;;;;;;;;;4864045;29;20056;-80
2021/01/21 03:26:16;;;;;;;1.80;0.80;;;;;;;;;;4868813;29;20263;-80
2021/01/21 03:28:42;;;;;;;4.00;1.35;;;;;;;;;;4865782;29;20482;-85
2021/01/21 03:31:08;;;;;;;3.20;1.20;;;;;;;;;;4866636;29;20132;-81
2021/01/21 03:33:36;;;;;;;6.55;1.50;;;;;;;;;;4864435;29;20057;-82
2021/01/21 03:36:02;;;;;;;2.80;1.25;;;;;;;;;;4866779;29;20049;-83
2021/01/21 03:38:29;;;;;;;1.75;0.98;;;;;;;;;;4864994;29;20077;-81
2021/01/21 03:40:55;;;;;;;2.33;1.00;;;;;;;;;;4869083;29;20132;-82
2021/01/21 03:43:21;;;;;;;4.00;1.17;;;;;;;;;;4864774;29;20073;-81
2021/01/21 03:45:47;;;;;;;2.38;0.95;;;;;;;;;;4868990;29;20157;-84
2021/01/21 03:48:13;;;;;;;3.42;1.10;;;;;;;;;;4864330;29;20498;-85
2021/01/21 03:50:39;;;;;;;3.10;1.52;;;;;;;;;;4862559;29;20061;-83
2021/01/21 03:53:06;;;;;;;3.50;1.20;;;;;;;;;;4868802;29;20057;-83
2021/01/21 03:55:32;;;;;;;3.28;1.20;;;;;;;;;;4871551;29;20073;-86
2021/01/21 03:57:59;;;;;;;2.78;1.02;;;;;;;;;;4867543;29;20077;-85
2021/01/21 04:00:25;;;;;;;2.30;1.20;;;;;;;;;;4869720;29;20101;-83
2021/01/21 04:02:51;;;;;;;3.20;1.20;;;;;;;;;;4863091;29;20560;-83
2021/01/21 04:05:17;;;;;;;2.28;0.93;;;;;;;;;;4867506;29;20056;-85
2021/01/21 04:07:43;;;;;;;2.95;1.17;;;;;;;;;;4867351;29;20436;-84
2021/01/21 04:10:11;;;;;;;2.60;0.93;;;;;;;;;;4866433;29;20045;-85
2021/01/21 04:12:37;;;;;;;2.03;0.90;;;;;;;;;;4866717;29;20140;-85
2021/01/21 04:15:03;;;;;;;2.20;0.95;;;;;;;;;;4873297;29;20060;-85
2021/01/21 04:17:30;;;;;;;4.53;1.42;;;;;;;;;;4869339;29;20067;-85
2021/01/21 04:19:57;;;;;;;3.33;1.30;;;;;;;;;;4871424;29;20049;-78
2021/01/21 04:22:23;;;;;;;3.25;1.10;;;;;;;;;;4867841;29;20056;-78
2021/01/21 04:24:49;;;;;;;2.70;1.00;;;;;;;;;;4869668;29;20401;-78
2021/01/21 04:27:15;;;;;;;2.53;1.48;;;;;;;;;;4869771;29;20081;-81
2021/01/21 04:29:41;;;;;;;3.58;1.40;;;;;;;;;;4873598;29;20132;-95
2021/01/21 04:32:08;;;;;;;2.28;1.20;;;;;;;;;;4868228;29;20481;-81
2021/01/21 04:34:34;;;;;;;2.90;1.08;;;;;;;;;;4868954;29;20557;-83
2021/01/21 04:37:00;;;;;;;3.28;1.10;;;;;;;;;;4863399;29;21771;-85
2021/01/21 04:39:26;;;;;;;3.28;1.20;;;;;;;;;;4865637;29;20056;-86
2021/01/21 04:41:52;;;;;;;5.30;1.20;;;;;;;;;;4864171;29;20077;-89
2021/01/21 04:44:19;;;;;;;2.35;1.10;;;;;;;;;;4864098;29;20042;-86
2021/01/21 04:46:45;;;;;;;2.58;1.13;;;;;;;;;;4870415;29;20055;-83
2021/01/21 04:49:12;;;;;;;1.95;0.98;;;;;;;;;;4866537;29;20045;-83
2021/01/21 04:51:39;;;;;;;2.53;1.05;;;;;;;;;;4869267;29;20575;-83
2021/01/21 04:54:05;;;;;;;3.30;1.33;;;;;;;;;;4872298;29;20064;-81
2021/01/21 04:56:37;;;;;;;5.43;1.50;;;;;;;;;;4864833;29;20407;-82
2021/01/21 04:59:04;;;;;;;2.13;0.95;;;;;;;;;;4866634;29;20164;-81
2021/01/21 05:01:31;;;;;;;1.80;0.98;;;;;;;;;;4867296;29;20045;-82
2021/01/21 05:03:59;;;;;;;1.85;0.85;;;;;;;;;;4869088;29;20509;-84
2021/01/21 05:06:25;;;;;;;2.83;1.25;;;;;;;;;;4866382;29;20508;-81
2021/01/21 05:08:52;;;;;;;3.95;1.10;;;;;;;;;;4863523;29;20057;-81
2021/01/21 05:11:18;;;;;;;3.95;1.15;;;;;;;;;;4866163;29;20048;-84
2021/01/21 05:13:44;;;;;;;3.05;1.48;;;;;;;;;;4862415;29;20405;-83
2021/01/21 05:16:10;;;;;;;4.10;1.25;;;;;;;;;;4864126;29;20055;-81
2021/01/21 05:18:36;;;;;;;2.92;1.00;;;;;;;;;;4870731;29;20057;-84
2021/01/21 05:21:06;;;;;;;3.38;1.20;;;;;;;;;;4868995;29;20385;-85
2021/01/21 05:23:32;;;;;;;4.57;1.33;;;;;;;;;;4866811;29;20116;-79
2021/01/21 05:25:59;;;;;;;5.03;1.48;;;;;;;;;;4863839;29;20465;-80
2021/01/21 05:28:26;;;;;;;2.10;1.20;;;;;;;;;;4869911;29;20052;-84
2021/01/21 05:30:53;;;;;;;2.80;1.20;;;;;;;;;;4863478;29;20128;-85
2021/01/21 05:33:20;;;;;;;3.78;1.20;;;;;;;;;;4860638;29;20057;-81
2021/01/21 05:35:51;;;;;;;3.30;1.65;;;;;;;;;;4864665;29;20055;-81
2021/01/21 05:38:18;;;;;;;4.72;1.83;;;;;;;;;;4868841;29;20518;-83
2021/01/21 05:40:44;;;;;;;3.10;0.93;;;;;;;;;;4867047;29;20045;-83
2021/01/21 05:43:10;;;;;;;1.88;0.95;;;;;;;;;;4868566;29;20053;-83
2021/01/21 05:45:36;;;;;;;4.50;1.35;;;;;;;;;;4864225;29;20053;-83
2021/01/21 05:48:03;;;;;;;4.38;1.00;;;;;;;;;;4862649;29;20183;-82
2021/01/21 05:50:29;;;;;;;4.80;1.13;;;;;;;;;;4867428;29;20579;-83
2021/01/21 05:52:56;;;;;;;4.30;0.93;;;;;;;;;;4864003;29;20053;-81
2021/01/21 05:55:23;;;;;;;4.80;2.13;;;;;;;;;;4863403;29;20053;-82
2021/01/21 05:57:50;;;;;;;1.80;0.82;;;;;;;;;;4868362;29;20468;-82
2021/01/21 06:00:17;;;;;;;3.55;1.10;;;;;;;;;;4861049;29;20053;-83
2021/01/21 06:02:43;;;;;;;2.95;1.10;;;;;;;;;;4862305;29;20131;-83
2021/01/21 06:05:13;;;;;;;2.78;0.98;;;;;;;;;;4867933;29;20575;-82
2021/01/21 06:07:39;;;;;;;2.13;1.33;;;;;;;;;;4862720;29;20060;-83
2021/01/21 06:10:05;;;;;;;2.85;1.60;;;;;;;;;;4865677;29;20139;-83
2021/01/21 06:12:31;;;;;;;3.58;0.80;;;;;;;;;;4868729;29;20067;-82
2021/01/21 06:14:59;;;;;;;3.50;1.20;;;;;;;;;;4865775;29;20049;-82
2021/01/21 06:17:26;;;;;;;3.65;1.27;;;;;;;;;;4861217;29;20045;-83
2021/01/21 06:19:53;;;;;;;4.15;1.45;;;;;;;;;;4865978;29;20084;-83
2021/01/21 06:22:22;;;;;;;2.28;1.27;;;;;;;;;;4863662;29;20073;-90
2021/01/21 06:24:49;;;;;;;3.40;1.52;;;;;;;;;;4864024;29;20057;-85
2021/01/21 06:27:16;;;;;;;4.30;1.13;;;;;;;;;;4868368;29;20599;-85
2021/01/21 06:29:47;;;;;;;2.40;0.88;;;;;;;;;;4862684;29;20407;-89
2021/01/21 06:32:14;;;;;;;3.75;1.00;;;;;;;;;;4865872;29;20048;-86
2021/01/21 06:34:41;;;;;;;4.45;1.33;;;;;;;;;;4865035;29;20101;-82
2021/01/21 06:37:18;;;;;;;4.50;1.23;;;;;;;;;;4868208;29;20510;-81
2021/01/21 06:39:56;;;;;;;3.65;1.02;;;;;;;;;;4863623;29;20109;-82
2021/01/21 06:42:28;;;;;;;2.35;1.17;;;;;;;;;;4868758;29;20056;-83
2021/01/21 06:44:58;;;;;;;13.13;1.42;;;;;;;;;;4866972;29;20085;-77
2021/01/21 06:47:25;;;;;;;2.95;0.75;;;;;;;;;;4869753;29;20056;-77
2021/01/21 06:49:56;;;;;;;5.78;1.50;;;;;;;;;;4870090;29;20050;-77
2021/01/21 06:52:25;;;;;;;3.28;1.55;;;;;;;;;;4869761;29;20393;-76
2021/01/21 06:54:52;;;;;;;4.15;1.15;;;;;;;;;;4870229;29;20079;-77
2021/01/21 06:57:33;;;;;;;5.35;1.30;;;;;;;;;;4865921;29;20053;-77
2021/01/21 07:00:00;;;;;;;2.75;1.33;;;;;;;;;;4868678;29;20045;-79
2021/01/21 07:02:44;;;;;;;9.27;1.80;;;;;;;;;;4867525;29;20057;-73
2021/01/21 07:05:29;;;;;;;4.32;1.80;;;;;;;;;;4868751;29;20102;-73
2021/01/21 07:07:55;;;;;;;4.85;1.60;;;;;;;;;;4862281;29;20058;-78
2021/01/21 07:10:32;;;;;;;9.43;2.60;;;;;;;;;;4867057;29;20058;-79
2021/01/21 07:13:03;;;;;;;8.68;2.35;;;;;;;;;;4862222;29;20081;-83
2021/01/21 07:15:30;;;;;;;3.47;1.27;;;;;;;;;;4865139;29;20145;-87
2021/01/21 07:18:06;;;;;;;4.28;1.92;;;;;;;;;;4865025;29;20057;-85
2021/01/21 07:20:33;;;;;;;2.53;1.15;;;;;;;;;;4862772;29;20049;-85
2021/01/21 07:23:07;;;;;;;4.60;2.17;;;;;;;;;;4858404;29;20493;-85
2021/01/21 07:25:33;;;;;;;7.25;2.10;;;;;;;;;;4865790;29;20162;-84
2021/01/21 07:28:09;;;;;;;4.32;1.95;;;;;;;;;;4867034;29;20053;-85
2021/01/21 07:30:59;;;;;;;8.05;2.33;;;;;;;;;;4864809;29;20116;-85
2021/01/21 07:33:26;;;;;;;7.38;1.55;;;;;;;;;;4866118;29;20057;-86
2021/01/21 07:35:52;;;;;;;6.60;2.30;;;;;;;;;;4867956;29;20144;-84
2021/01/21 07:38:41;;;;;;;4.70;2.30;;;;;;;;;;4868099;29;20060;-86
2021/01/21 07:41:10;;;;;;;5.72;2.50;;;;;;;;;;4856576;29;20048;-87
2021/01/21 07:43:56;;;;;;;8.75;2.38;;;;;;;;;;4862793;29;20053;-80
2021/01/21 07:46:23;;;;;;;12.77;3.03;;;;;;;;;;4865131;29;20533;-88
2021/01/21 07:49:09;;;;;;;12.43;3.40;;;;;;;;;;4866361;29;20049;-88
2021/01/21 07:51:36;;;;;;;8.82;3.38;;;;;;;;;;4865067;29;20104;-84
2021/01/21 07:54:03;;;;;;;14.15;4.07;;;;;;;;;;4866994;29;20765;-89
2021/01/21 07:56:29;;;;;;;15.02;5.80;;;;;;;;;;4866877;29;20079;-88
2021/01/21 07:59:01;;;;;;;14.35;4.65;;;;;;;;;;4863621;29;20057;-89
2021/01/21 08:01:28;;;;;;;12.13;4.70;;;;;;;;;;4862587;29;20061;-86
2021/01/21 08:03:54;;;;;;;13.50;6.25;;;;;;;;;;4864698;29;20781;-80
2021/01/21 08:06:24;;;;;;;16.20;7.43;;;;;;;;;;4861978;29;20058;-82
2021/01/21 08:08:52;;;;;;;18.27;7.55;;;;;;;;;;4864740;29;20375;-84
2021/01/21 08:11:19;;;;;;;17.60;8.93;;;;;;;;;;4866326;29;20461;-84
2021/01/21 08:13:49;;;;;;;15.32;7.38;;;;;;;;;;4863999;29;20109;-83
2021/01/21 08:16:17;;;;;;;15.52;7.40;;;;;;;;;;4863257;29;20053;-83
2021/01/21 08:18:46;;;;;;;20.08;7.70;;;;;;;;;;4864678;29;20532;-83
2021/01/21 08:21:18;;;;;;;15.55;7.88;;;;;;;;;;4863371;29;20061;-83
2021/01/21 08:23:58;;;;;;;23.52;8.38;;;;;;;;;;4867396;29;20049;-82
2021/01/21 08:26:26;;;;;;;21.02;9.18;;;;;;;;;;4864401;29;20056;-83
2021/01/21 08:28:54;;;;;;;20.75;8.55;;;;;;;;;;4864451;29;20061;-83
2021/01/21 08:31:22;;;;;;;18.77;8.10;;;;;;;;;;4864902;29;20049;-83
2021/01/21 08:33:49;;;;;;;19.65;7.53;;;;;;;;;;4865611;29;20063;-82
2021/01/21 08:36:20;;;;;;;15.90;7.43;;;;;;;;;;4870437;29;20049;-84
2021/01/21 08:38:46;;;;;;;20.80;7.65;;;;;;;;;;4869029;29;20136;-84
2021/01/21 08:41:13;;;;;;;19.83;8.00;;;;;;;;;;4869056;29;20045;-83
2021/01/21 08:43:44;;;;;;;21.13;8.57;;;;;;;;;;4866297;29;20071;-84
2021/01/21 08:46:11;;;;;;;13.60;7.13;;;;;;;;;;4862589;29;20149;-83
2021/01/21 08:48:37;;;;;;;16.25;7.32;;;;;;;;;;4863273;29;20136;-84
2021/01/21 08:51:04;;;;;;;17.00;7.68;;;;;;;;;;4866075;29;20045;-83
2021/01/21 08:53:30;;;;;;;17.13;7.20;;;;;;;;;;4864053;29;20061;-83
2021/01/21 08:55:57;;;;;;;11.80;6.28;;;;;;;;;;4865916;29;20060;-83
2021/01/21 08:58:30;;;;;;;15.95;7.15;;;;;;;;;;4866464;29;20522;-83
2021/01/21 09:01:02;;;;;;;15.38;5.93;;;;;;;;;;4864918;29;20158;-84
2021/01/21 09:03:45;;;;;;;14.85;6.63;;;;;;;;;;4865342;29;20053;-83
2021/01/21 09:06:12;;;;;;;13.02;6.40;;;;;;;;;;4868147;29;20068;-83
2021/01/21 09:08:55;;;;;;;13.90;6.30;;;;;;;;;;4859253;29;20426;-83
2021/01/21 09:11:34;;;;;;;14.38;6.35;;;;;;;;;;4864285;29;20049;-84
2021/01/21 09:14:02;;;;;;;12.53;5.27;;;;;;;;;;4859389;29;20427;-84
2021/01/21 09:16:46;;;;;;;10.38;4.50;;;;;;;;;;4859192;29;20053;-82
2021/01/21 09:19:16;;;;;;;7.50;4.28;;;;;;;;;;4863479;29;20053;-84
2021/01/21 09:22:02;;;;;;;19.00;5.85;;;;;;;;;;4859661;29;20055;-84
2021/01/21 09:24:28;;;;;;;10.90;4.78;;;;;;;;;;4862109;29;20463;-82
2021/01/21 09:27:15;;;;;;;14.65;5.93;;;;;;;;;;4860110;29;20058;-84
2021/01/21 09:29:45;;;;;;;11.02;4.97;;;;;;;;;;4859550;29;20045;-83
2021/01/21 09:32:11;;;;;;;11.27;4.72;;;;;;;;;;4865270;29;20048;-84
2021/01/21 09:34:38;;;;;;;10.70;5.00;;;;;;;;;;4862020;29;20049;-86
2021/01/21 09:37:04;;;;;;;16.52;5.95;;;;;;;;;;4859308;29;20152;-86
2021/01/21 09:39:30;;;;;;;9.18;3.92;;;;;;;;;;4863686;29;20175;-85
2021/01/21 09:41:56;;;;;;;11.38;5.20;;;;;;;;;;4864203;29;20067;-85
2021/01/21 09:44:22;;;;;;;12.43;4.68;;;;;;;;;;4862347;29;20058;-86
2021/01/21 09:46:48;;;;;;;10.40;4.30;;;;;;;;;;4861872;29;20505;-85
2021/01/21 09:49:15;;;;;;;8.85;4.63;;;;;;;;;;4871230;29;20052;-85
2021/01/21 09:51:41;;;;;;;9.43;4.13;;;;;;;;;;4864874;29;20049;-84
2021/01/21 09:54:07;;;;;;;8.68;3.97;;;;;;;;;;4866612;29;20515;-85
2021/01/21 09:56:37;;;;;;;10.20;4.72;;;;;;;;;;4863928;29;20063;-85
2021/01/21 09:59:03;;;;;;;10.95;3.58;;;;;;;;;;4861163;29;20434;-84
2021/01/21 10:01:29;;;;;;;8.85;4.20;;;;;;;;;;4865417;29;20050;-84
2021/01/21 10:03:55;;;;;;;8.82;3.90;;;;;;;;;;4861232;29;20149;-85
2021/01/21 10:06:22;;;;;;;8.00;3.63;;;;;;;;;;4861873;29;20072;-85
2021/01/21 10:08:48;;;;;;;8.30;4.13;;;;;;;;;;4864004;29;20472;-85
2021/01/21 10:11:14;;;;;;;8.68;2.92;;;;;;;;;;4860871;29;20152;-85
2021/01/21 10:13:40;;;;;;;9.95;3.33;;;;;;;;;;4865636;29;20514;-85
2021/01/21 10:16:07;;;;;;;6.55;3.10;;;;;;;;;;4866681;29;20112;-84
2021/01/21 10:18:33;;;;;;;13.27;4.03;;;;;;;;;;4860328;29;20396;-85
2021/01/21 10:20:59;;;;;;;8.80;4.00;;;;;;;;;;4862301;29;20054;-85
2021/01/21 10:23:26;;;;;;;6.20;3.75;;;;;;;;;;4864148;29;20060;-85
2021/01/21 10:25:52;;;;;;;6.18;2.55;;;;;;;;;;4866158;29;20060;-86
2021/01/21 10:28:18;;;;;;;5.82;2.95;;;;;;;;;;4863337;29;20066;-83
2021/01/21 10:30:44;;;;;;;6.68;2.90;;;;;;;;;;4864804;29;20054;-86
2021/01/21 10:33:11;;;;;;;7.30;2.90;;;;;;;;;;4861592;29;20140;-85
2021/01/21 10:35:38;;;;;;;6.03;3.03;;;;;;;;;;4864798;29;20135;-85
2021/01/21 10:38:04;;;;;;;7.75;3.13;;;;;;;;;;4866257;29;20049;-85
2021/01/21 10:40:30;;;;;;;6.90;2.20;;;;;;;;;;4865571;29;20063;-85
2021/01/21 10:42:56;;;;;;;7.47;2.90;;;;;;;;;;4865381;29;20073;-86
2021/01/21 10:45:23;;;;;;;5.75;2.88;;;;;;;;;;4859261;29;20041;-86
2021/01/21 10:47:49;;;;;;;7.90;3.58;;;;;;;;;;4861968;29;20063;-86
2021/01/21 10:50:15;;;;;;;7.05;3.08;;;;;;;;;;4862571;29;20144;-85
2021/01/21 10:52:42;;;;;;;6.05;2.88;;;;;;;;;;4864528;29;20053;-85
2021/01/21 10:55:09;;;;;;;6.95;3.05;;;;;;;;;;4860040;29;20637;-85
2021/01/21 10:57:36;;;;;;;5.75;2.85;;;;;;;;;;4860779;29;20060;-84
2021/01/21 11:00:03;;;;;;;6.05;2.63;;;;;;;;;;4861812;29;20481;-85
2021/01/21 11:02:30;;;;;;;6.45;2.90;;;;;;;;;;4858622;29;20061;-85
2021/01/21 11:04:56;;;;;;;6.65;2.13;;;;;;;;;;4863641;29;20076;-86
2021/01/21 11:07:23;;;;;;;6.18;2.50;;;;;;;;;;4862221;29;20079;-85
2021/01/21 11:09:49;;;;;;;6.97;2.80;;;;;;;;;;4862198;29;20053;-84
2021/01/21 11:12:16;;;;;;;4.88;1.70;;;;;;;;;;4863218;29;20160;-85
2021/01/21 11:14:48;;;;;;;6.32;2.33;;;;;;;;;;4863015;29;20140;-85
2021/01/21 11:17:14;;;;;;;5.55;2.70;;;;;;;;;;4862372;29;20057;-85
2021/01/21 11:19:41;;;;;;;5.68;2.50;;;;;;;;;;4860954;29;20063;-85
2021/01/21 11:22:07;;;;;;;5.32;2.58;;;;;;;;;;4863895;29;20049;-85
2021/01/21 11:24:33;;;;;;;7.55;2.20;;;;;;;;;;4863982;29;20057;-86
2021/01/21 11:27:08;;;;;;;6.40;2.58;;;;;;;;;;4871382;23;20056;-76
2021/01/21 11:29:45;;;;;;;6.65;2.67;;;;;;;;;;4843281;29;20046;-75
2021/01/21 11:32:14;;;;;;;5.22;2.38;;;;;;;;;;4845186;29;20053;-76
2021/01/21 11:34:40;;;;;;;5.30;1.98;;;;;;;;;;4848098;29;20050;-75
2021/01/21 11:37:07;;;;;;;3.70;1.88;;;;;;;;;;4844972;29;20053;-75
2021/01/21 11:39:33;;;;;;;3.40;2.00;;;;;;;;;;4848036;29;20053;-75
2021/01/21 11:42:00;;;;;;;5.93;2.65;;;;;;;;;;4844669;29;20411;-74
2021/01/21 11:44:29;;;;;;;4.57;2.25;;;;;;;;;;4848917;29;20568;-76
2021/01/21 11:46:56;;;;;;;4.90;2.08;;;;;;;;;;4841840;29;20446;-76
2021/01/21 11:49:22;;;;;;;5.75;2.22;;;;;;;;;;4850602;29;20049;-76
2021/01/21 11:51:48;;;;;;;4.47;2.05;;;;;;;;;;4846129;29;20057;-76
2021/01/21 11:54:14;;;;;;;7.00;1.95;;;;;;;;;;4842898;29;20077;-76
2021/01/21 11:56:40;;;;;;;5.00;2.08;;;;;;;;;;4848634;29;20077;-76
2021/01/21 11:59:07;;;;;;;3.53;2.03;;;;;;;;;;4850202;29;20128;-76
2021/01/21 12:01:33;;;;;;;4.07;2.30;;;;;;;;;;4832736;29;20053;-76
2021/01/21 12:04:00;;;;;;;5.97;2.35;;;;;;;;;;4842989;29;20053;-76
2021/01/21 12:06:26;;;;;;;3.47;1.42;;;;;;;;;;4846903;29;20076;-78
2021/01/21 12:08:52;;;;;;;3.80;1.77;;;;;;;;;;4846989;29;20393;-76
2021/01/21 12:11:20;;;;;;;5.75;2.10;;;;;;;;;;4845854;29;20297;-77
2021/01/21 12:13:47;;;;;;;4.22;2.00;;;;;;;;;;4847883;29;20055;-76
2021/01/21 12:16:16;;;;;;;6.60;1.88;;;;;;;;;;4848598;29;20056;-75
2021/01/21 12:18:42;;;;;;;7.22;2.67;;;;;;;;;;4849050;29;20046;-75
2021/01/21 12:21:10;;;;;;;5.35;2.13;;;;;;;;;;4848199;29;20058;-76
2021/01/21 12:23:38;;;;;;;3.83;1.60;;;;;;;;;;4848579;29;20842;-76
2021/01/21 12:26:09;;;;;;;7.07;2.55;;;;;;;;;;4848648;29;20560;-75
2021/01/21 12:28:37;;;;;;;5.40;1.85;;;;;;;;;;4844972;29;20521;-75
2021/01/21 12:31:05;;;;;;;6.80;1.80;;;;;;;;;;4845261;29;20053;-76
2021/01/21 12:33:32;;;;;;;7.28;2.40;;;;;;;;;;4846375;29;20129;-75
2021/01/21 12:35:58;;;;;;;4.60;1.70;;;;;;;;;;4845933;29;20651;-77
2021/01/21 12:38:25;;;;;;;5.90;2.10;;;;;;;;;;4847907;29;20087;-78
2021/01/21 12:40:52;;;;;;;7.25;2.40;;;;;;;;;;4831351;29;20058;-74
2021/01/21 12:43:21;;;;;;;6.30;2.83;;;;;;;;;;4849803;29;20064;-75
2021/01/21 12:45:49;;;;;;;5.38;3.10;;;;;;;;;;4843529;29;20154;-74
2021/01/21 12:48:17;;;;;;;6.30;2.30;;;;;;;;;;4844468;29;20060;-79
2021/01/21 12:50:43;;;;;;;8.65;3.85;;;;;;;;;;4839180;29;20057;-79
2021/01/21 12:53:09;;;;;;;10.15;4.30;;;;;;;;;;4845626;29;20053;-87
2021/01/21 12:55:35;;;;;;;15.65;4.90;;;;;;;;;;4842658;29;20509;-85
2021/01/21 12:58:02;;;;;;;12.48;5.00;;;;;;;;;;4848687;29;20050;-86
2021/01/21 13:00:29;;;;;;;13.77;4.82;;;;;;;;;;4852342;29;20064;-86
2021/01/21 13:02:55;;;;;;;15.48;4.88;;;;;;;;;;4840801;29;20141;-86
2021/01/21 13:05:21;;;;;;;16.60;5.47;;;;;;;;;;4842658;29;20054;-86
2021/01/21 13:07:47;;;;;;;12.05;4.93;;;;;;;;;;4848670;29;20114;-88
2021/01/21 13:10:15;;;;;;;14.73;5.22;;;;;;;;;;4850418;29;20061;-85
2021/01/21 13:12:41;;;;;;;13.90;5.90;;;;;;;;;;4842512;29;20420;-87
2021/01/21 13:15:08;;;;;;;12.82;4.88;;;;;;;;;;4847846;29;20058;-87
2021/01/21 13:17:34;;;;;;;17.00;5.18;;;;;;;;;;4846656;29;20405;-86
2021/01/21 13:20:00;;;;;;;12.52;4.97;;;;;;;;;;4842624;29;20053;-85
2021/01/21 13:22:27;;;;;;;14.75;4.88;;;;;;;;;;4845951;29;20072;-89
2021/01/21 13:24:53;;;;;;;10.20;4.85;;;;;;;;;;4842871;29;20149;-88
2021/01/21 13:27:19;;;;;;;13.73;4.65;;;;;;;;;;4842874;29;20058;-86
2021/01/21 13:29:45;;;;;;;12.02;4.80;;;;;;;;;;4842916;29;20046;-89
2021/01/21 13:32:11;;;;;;;12.88;4.60;;;;;;;;;;4846742;29;20052;-87
2021/01/21 13:34:39;;;;;;;12.10;4.63;;;;;;;;;;4844209;29;20136;-87
2021/01/21 13:37:05;;;;;;;9.85;4.15;;;;;;;;;;4842385;29;20050;-87
2021/01/21 13:39:32;;;;;;;10.45;4.90;;;;;;;;;;4842837;29;20061;-85
2021/01/21 13:41:58;;;;;;;11.18;4.00;;;;;;;;;;4842364;29;20053;-89
2021/01/21 13:44:24;;;;;;;9.07;4.20;;;;;;;;;;4842394;29;20595;-84
2021/01/21 13:46:50;;;;;;;13.93;5.63;;;;;;;;;;4844066;29;20065;-82
2021/01/21 13:49:16;;;;;;;9.40;3.70;;;;;;;;;;4843484;29;20065;-85
2021/01/21 13:51:42;;;;;;;9.80;4.10;;;;;;;;;;4844393;29;20042;-84
2021/01/21 13:54:10;;;;;;;11.15;4.90;;;;;;;;;;4841704;29;20054;-84
2021/01/21 13:56:38;;;;;;;17.10;4.55;;;;;;;;;;4842192;29;20073;-86
2021/01/21 13:59:04;;;;;;;8.82;4.70;;;;;;;;;;4842414;29;20058;-84
2021/01/21 14:01:36;;;;;;;9.88;3.58;;;;;;;;;;4845142;29;20052;-84
2021/01/21 14:04:06;;;;;;;10.93;3.45;;;;;;;;;;4842969;29;20060;-84
2021/01/21 14:06:35;;;;;;;11.30;4.70;;;;;;;;;;4845791;29;20439;-85
2021/01/21 14:09:02;;;;;;;11.30;4.22;;;;;;;;;;4846624;29;20053;-86
2021/01/21 14:11:29;;;;;;;6.93;3.25;;;;;;;;;;4845406;29;20109;-84
2021/01/21 14:13:55;;;;;;;10.38;3.80;;;;;;;;;;4842006;29;20141;-86
2021/01/21 14:16:21;;;;;;;7.95;3.22;;;;;;;;;;4841773;29;20136;-87
2021/01/21 14:18:48;;;;;;;9.70;3.75;;;;;;;;;;4841548;29;20058;-85
2021/01/21 14:21:14;;;;;;;8.95;4.13;;;;;;;;;;4845040;29;20459;-84
2021/01/21 14:23:43;;;;;;;7.40;3.38;;;;;;;;;;4842937;29;20064;-84
2021/01/21 14:26:11;;;;;;;10.10;3.67;;;;;;;;;;4840295;29;20046;-86
2021/01/21 14:28:37;;;;;;;10.00;3.63;;;;;;;;;;4846421;29;20136;-78
2021/01/21 14:31:04;;;;;;;10.88;3.55;;;;;;;;;;4827440;29;20780;-80
2021/01/21 14:33:30;;;;;;;8.55;3.38;;;;;;;;;;4845220;29;20053;-81
2021/01/21 14:35:57;;;;;;;8.02;3.78;;;;;;;;;;4840764;29;20506;-80
2021/01/21 14:38:23;;;;;;;14.20;4.07;;;;;;;;;;4844820;29;20416;-82
2021/01/21 14:40:50;;;;;;;10.30;3.88;;;;;;;;;;4843710;29;20164;-81
2021/01/21 14:43:16;;;;;;;11.93;3.50;;;;;;;;;;4845527;29;20516;-80
2021/01/21 14:45:42;;;;;;;9.00;3.78;;;;;;;;;;4845711;29;20046;-81